Station: Trangie  

  Atmospheric Gas Attenuation - ITU Rec 676-11   ----------------- dB/100km -----------------
Date Time Temp RH % AH g/m3 Dew Point Wind Direction Speed kph Gust kph Barometer mB Rainfall Since 9am 24GHz 47GHz 76GHz 122GHz 134GHz 241GHz
08/05 12:30 16.5 49 6.88 5.8 22 32 1024.4 0 15.8 22.9 32.5 84.8 74.6 255.2
08/05 12:20 16.1 49 6.72 5.4 28 35 1024.8 0 15.5 22.8 32.1 83.6 73.0 249.7
08/05 12:10 15.7 51 6.82 5.6 28 32 1024.9 0 15.7 23.0 32.6 85.1 74.6 255.3
08/05 12:00 15.3 50 6.53 5 24 32 1025 0 15.1 22.7 31.7 82.6 71.5 244.2
08/05 11:50 15.3 50 6.53 4.9 28 33 1025.3 0 15.1 22.7 31.7 82.7 71.5 244.3
08/05 11:40 15.8 50 6.73 5.4 28 32 1025.3 0 15.5 22.9 32.2 84.1 73.5 251.2
08/05 11:30 14.7 51 6.42 4.7 30 37 1025.4 0 14.9 22.7 31.5 82.2 70.7 241.4
08/05 11:20 14.6 51 6.38 4.6 30 37 1025.5 0 14.8 22.7 31.4 81.9 70.3 240.0
08/05 11:10 14.8 52 6.59 5.1 24 30 1025.5 0 15.3 22.9 32.1 83.8 72.7 248.4
08/05 11:00 14.1 52 6.31 4.4 24 37 1025.6 0 14.7 22.7 31.4 81.7 69.9 238.6
08/05 10:50 14.2 53 6.47 4.8 24 30 1025.8 0 15.0 22.9 31.9 83.2 71.8 245.1
08/05 10:40 13.9 54 6.47 4.8 24 30 1025.9 0 15.0 23.0 32.0 83.6 72.1 246.1
08/05 10:30 14 54 6.51 4.9 22 32 1025.9 0 15.1 23.0 32.2 83.9 72.5 247.5
08/05 10:20 13.4 56 6.51 4.8 22 28 1026 0 15.2 23.2 32.4 84.5 73.0 249.4
08/05 10:10 13.3 57 6.59 5 19 22 1026.1 0 15.3 23.3 32.7 85.4 74.1 253.2
08/05 10:00 12.6 58 6.42 4.6 22 30 1026 0 15.0 23.3 32.4 84.4 72.6 247.9
08/05 09:50 12.4 59 6.45 4.6 24 30 1026 0 15.1 23.4 32.6 84.9 73.2 249.9
08/05 09:40 12.2 61 6.58 4.9 17 20 1025.9 0 15.3 23.6 33.1 86.5 75.0 256.2
08/05 09:30 11.5 63 6.51 4.7 22 28 1025.8 0 15.2 23.7 33.2 86.5 74.8 255.3
08/05 09:20 11.1 63 6.35 4.3 26 28 1025.8 0 14.9 23.5 32.7 85.3 73.1 249.5
08/05 09:10 10.9 66 6.57 4.8 17 20 1025.7 0 15.4 23.9 33.6 87.8 76.1 259.9
08/05 09:00 10.4 67 6.46 4.5 20 26 1025.6 0 15.2 23.9 33.4 87.2 75.2 256.6
08/05 08:50 9.5 66 6.01 3.5 22 28 1025.8 0 14.2 23.4 32.0 83.5 70.3 239.2
08/05 08:40 9.2 69 6.16 3.8 19 22 1025.8 0 14.6 23.7 32.7 85.4 72.5 246.8
08/05 08:30 8.6 72 6.19 3.8 15 20 1025.7 0 14.7 23.9 33.1 86.3 73.4 250.1
08/05 08:20 7.9 75 6.16 3.8 13 13 1025.8 0 14.6 24.1 33.3 86.8 73.7 250.9
08/05 08:10 7.4 75 5.97 3.3 11 13 1025.7 0 14.2 23.9 32.7 85.3 71.6 243.7
08/05 08:00 6.9 79 6.08 3.5 11 15 1025.5 0 14.5 24.2 33.4 87.0 73.6 250.3
08/05 07:50 6.1 78 5.7 2.6 11 11 1025.5 0 13.7 23.8 32.2 83.8 69.3 235.1
08/05 07:40 5.6 81 5.73 2.6 9 11 1025.6 0 13.8 24.0 32.5 84.7 70.1 238.1
08/05 07:30 4.9 83 5.61 2.3 9 11 1025.5 0 13.6 24.0 32.3 84.1 69.1 234.5
08/05 07:20 4.5 84 5.53 2 9 9 1025.4 0 13.4 24.0 32.1 83.7 68.4 231.9
08/05 07:10 4 84 5.35 1.5 9 11 1025.4 0 13.0 23.8 31.6 82.2 66.4 224.9
08/05 07:00 3.9 83 5.25 1.3 9 13 1025.3 0 12.8 23.6 31.2 81.2 65.2 220.5
08/05 06:50 3.8 83 5.21 1.2 11 11 1025.3 0 12.7 23.6 31.1 80.9 64.7 218.9
08/05 06:40 3.7 83 5.18 1.1 9 11 1025.3 0 12.7 23.6 31.0 80.7 64.4 217.8
08/05 06:30 3.6 84 5.2 1.2 11 15 1025.2 0 12.7 23.6 31.1 81.0 64.7 219.0
08/05 06:20 3.2 84 5.07 0.8 9 11 1025.3 0 12.5 23.5 30.8 80.0 63.3 214.0
08/05 06:10 3.4 83 5.07 0.8 11 11 1025.2 0 12.4 23.5 30.7 79.8 63.2 213.4
08/05 06:00 3.5 83 5.11 0.9 11 13 1025 0 12.5 23.5 30.8 80.1 63.6 215.0
08/05 05:50 3.1 83 4.97 0.5 9 11 1025 0 12.2 23.4 30.4 79.0 62.1 209.5
08/05 05:40 3.2 83 5.01 0.6 9 11 1025 0 12.3 23.4 30.5 79.3 62.5 211.1
08/05 05:30 3.3 81 4.92 0.4 7 11 1024.9 0 12.1 23.3 30.1 78.3 61.2 206.6
08/05 05:20 3.6 82 5.08 0.8 9 9 1025 0 12.5 23.4 30.6 79.7 63.1 213.3
08/05 05:10 3.2 82 4.95 0.4 11 11 1024.9 0 12.2 23.3 30.3 78.7 61.7 208.3
08/05 05:00 3.5 81 4.98 0.6 9 11 1024.8 0 12.2 23.3 30.3 78.7 61.9 208.9
08/05 04:50 3.5 80 4.92 0.4 11 11 1024.8 0 12.1 23.2 30.0 78.1 61.1 206.1
08/05 04:40 3.7 80 4.99 0.6 11 11 1024.9 0 12.3 23.3 30.2 78.6 61.9 208.8
08/05 04:30 3.8 80 5.02 0.7 11 13 1024.8 0 12.3 23.3 30.3 78.8 62.2 209.9
08/05 04:20 3.6 79 4.89 0.3 9 11 1024.9 0 12.1 23.1 29.9 77.7 60.6 204.5
08/05 04:10 3.9 79 4.99 0.6 11 11 1024.9 0 12.3 23.2 30.2 78.4 61.7 208.3
08/05 04:00 4.2 79 5.09 0.9 11 15 1024.8 0 12.5 23.3 30.4 79.2 62.8 212.1
08/05 03:50 4 80 5.09 0.9 11 13 1024.9 0 12.5 23.3 30.5 79.4 62.9 212.7
08/05 03:40 3.7 78 4.86 0.2 9 9 1024.9 0 12.0 23.1 29.7 77.2 60.1 202.8
08/05 03:30 3.9 79 4.99 0.6 9 11 1024.8 0 12.3 23.2 30.2 78.4 61.7 208.3
08/05 03:20 4 78 4.96 0.5 9 9 1024.8 0 12.2 23.1 30.0 78.0 61.2 206.6
08/05 03:10 4.4 78 5.1 0.9 11 11 1024.9 0 12.5 23.3 30.4 79.1 62.8 212.1
08/05 03:00 3.9 78 4.93 0.4 13 15 1024.9 0 12.1 23.1 29.9 77.8 60.9 205.5
08/05 02:50 4.1 77 4.93 0.4 11 13 1025.1 0 12.1 23.1 29.9 77.6 60.8 205.1
08/05 02:40 4.6 77 5.1 0.9 15 15 1025.1 0 12.5 23.2 30.3 78.9 62.6 211.6
08/05 02:30 4 78 4.96 0.5 13 15 1025.1 0 12.2 23.1 30.0 78.0 61.2 206.7
08/05 02:20 4 77 4.9 0.3 13 13 1025.3 0 12.1 23.1 29.8 77.4 60.5 204.0
08/05 02:10 4.1 76 4.87 0.3 11 13 1025.4 0 12.0 23.0 29.6 77.0 60.0 202.3
08/05 02:00 4.2 76 4.9 0.4 13 15 1025.3 0 12.1 23.0 29.7 77.2 60.3 203.5
08/05 01:50 4.5 75 4.93 0.5 13 15 1025.5 0 12.1 23.0 29.7 77.2 60.5 204.1
08/05 01:40 4.5 75 4.93 0.5 11 13 1025.5 0 12.1 23.0 29.7 77.2 60.5 204.1
08/05 01:30 4.7 74 4.93 0.5 13 15 1025.4 0 12.1 22.9 29.6 77.0 60.3 203.6
08/05 01:20 4.8 75 5.03 0.8 13 13 1025.5 0 12.3 23.1 30.0 78.0 61.5 207.9
08/05 01:10 4.8 75 5.03 0.8 13 13 1025.5 0 12.3 23.1 30.0 78.0 61.5 207.9
08/05 01:00 4.5 76 5 0.6 9 15 1025.4 0 12.3 23.1 30.0 78.0 61.4 207.3
08/05 00:50 4.2 77 4.97 0.5 11 13 1025.4 0 12.2 23.1 30.0 78.0 61.2 206.7
08/05 00:40 3.7 77 4.8 0.1 11 11 1025.4 0 11.9 23.0 29.5 76.6 59.4 200.1
08/05 00:20 3.9 75 4.74 -0.1 13 13 1025.4 0 11.7 22.8 29.2 75.8 58.5 196.9
08/05 00:10 4 76 4.84 0.2 13 13 1025.5 0 11.9 23.0 29.6 76.8 59.7 201.2
08/05 00:00 4.3 74 4.8 0.1 11 13 1025.5 0 11.8 22.8 29.3 76.1 58.9 198.7
07/05 23:50 4.7 72 4.8 0.1 11 13 1025.6 0 11.8 22.7 29.1 75.7 58.6 197.7
07/05 23:40 4.7 72 4.8 0.1 13 15 1025.7 0 11.8 22.7 29.2 75.7 58.6 197.7
07/05 23:30 4.5 73 4.8 0.1 13 17 1025.5 0 11.8 22.8 29.2 75.9 58.8 198.2
07/05 23:20 4.4 71 4.64 -0.4 11 11 1025.7 0 11.5 22.6 28.6 74.3 56.8 191.2
07/05 23:10 5 71 4.83 0.2 11 13 1025.6 0 11.9 22.7 29.2 75.7 58.8 198.3
07/05 23:00 4.6 72 4.77 0 13 15 1025.6 0 11.8 22.7 29.1 75.5 58.3 196.6
07/05 22:50 4.7 71 4.73 -0.1 13 15 1025.6 0 11.7 22.6 28.9 75.0 57.7 194.5
07/05 22:40 4.4 71 4.64 -0.4 7 9 1025.7 0 11.5 22.6 28.6 74.3 56.8 191.2
07/05 22:30 4.3 73 4.74 -0.1 11 13 1025.6 0 11.7 22.7 29.1 75.4 58.2 195.9
07/05 22:20 4.3 69 4.48 -0.9 9 11 1025.8 0 11.1 22.3 28.1 72.8 54.8 184.2
07/05 22:10 4.6 67 4.44 -1 7 9 1025.8 0 11.1 22.2 27.8 72.1 54.1 181.7
07/05 22:00 4.7 66 4.4 -1.1 7 9 1025.8 0 11.0 22.1 27.6 71.6 53.5 179.7
07/05 21:50 5.2 65 4.48 -0.8 7 9 1025.8 0 11.1 22.1 27.7 71.9 54.2 182.1
07/05 21:40 5.2 67 4.62 -0.4 9 11 1025.7 0 11.4 22.3 28.3 73.4 56.0 188.4
07/05 21:30 4.7 67 4.47 -0.9 7 11 1025.7 0 11.1 22.2 27.9 72.3 54.4 182.8
07/05 21:20 5.1 67 4.59 -0.5 9 11 1025.6 0 11.4 22.3 28.2 73.1 55.7 187.2
07/05 21:10 5 67 4.56 -0.6 11 13 1025.5 0 11.3 22.3 28.1 72.9 55.3 186.1
07/05 21:00 4.9 68 4.59 -0.5 11 11 1025.2 0 11.4 22.3 28.2 73.3 55.8 187.6
07/05 20:50 5 68 4.62 -0.4 11 13 1025.1 0 11.4 22.4 28.3 73.5 56.1 188.7
07/05 20:40 5 64 4.35 -1.2 9 11 1025.1 0 10.8 21.9 27.3 70.7 52.7 176.7
07/05 20:30 5.4 63 4.4 -1.1 9 9 1025.1 0 10.9 21.9 27.3 70.9 53.0 178.0
07/05 20:20 5.6 63 4.46 -0.9 11 11 1025 0 11.1 22.0 27.5 71.3 53.6 180.2
07/05 20:10 6.3 60 4.44 -0.9 9 11 1025 0 11.0 21.8 27.2 70.5 52.9 177.8
07/05 20:00 6.5 59 4.43 -0.9 11 15 1024.9 0 11.0 21.7 27.1 70.2 52.6 176.9
07/05 19:50 7 59 4.57 -0.4 15 15 1024.9 0 11.3 21.8 27.4 71.2 54.0 181.9

Last Refresh: 08-May-2026 12:10:14

Bureau of Meteorology